Time;durP1;ratioP1;P1;durP2;ratioP2;P2;SDS_P1;SDS_P2;PMS_P1;PMS_P2;Temp;Humidity;BMP_temperature;BMP_pressure;BME280_temperature;BME280_humidity;BME280_pressure;Samples;Min_cycle;Max_cycle;Signal;HPM_P1;HPM_P2
2020/12/16 00:01:31;;;;;;;20.52;12.02;;;76.80;2227.20;;;;;;5076415;28;20033;-71
2020/12/16 00:03:57;;;;;;;17.17;9.82;;;52.00;2227.20;;;;;;5076026;28;20056;-71
2020/12/16 00:06:22;;;;;;;26.63;14.40;;;51.90;2227.20;;;;;;5076637;28;20059;-70
2020/12/16 00:08:49;;;;;;;36.45;18.40;;;52.00;2227.20;;;;;;5076548;28;20020;-71
2020/12/16 00:11:15;;;;;;;20.85;11.65;;;52.00;2227.20;;;;;;5076572;28;20112;-72
2020/12/16 00:13:41;;;;;;;25.25;13.65;;;51.90;2227.20;;;;;;5076423;28;20123;-71
2020/12/16 00:16:08;;;;;;;15.35;8.93;;;51.90;2227.20;;;;;;5076164;28;20032;-69
2020/12/16 00:18:34;;;;;;;23.15;10.93;;;51.80;2227.20;;;;;;5076490;28;20031;-71
2020/12/16 00:21:00;;;;;;;23.15;13.07;;;51.90;2227.20;;;;;;5076480;28;20029;-71
2020/12/16 00:23:25;;;;;;;39.28;19.83;;;52.10;2227.20;;;;;;5075850;28;20439;-70
2020/12/16 00:25:51;;;;;;;17.70;10.15;;;76.80;2227.20;;;;;;5076352;28;20031;-72
2020/12/16 00:28:17;;;;;;;21.02;12.48;;;76.90;2227.20;;;;;;5077432;28;20061;-71
2020/12/16 00:30:47;;;;;;;17.33;10.13;;;76.90;2227.20;;;;;;5079613;28;20073;-71
2020/12/16 00:33:17;;;;;;;16.20;8.82;;;76.90;2227.20;;;;;;5080057;28;20036;-71
2020/12/16 00:35:44;;;;;;;10.77;6.50;;;76.90;2227.20;;;;;;5079497;28;20028;-71
2020/12/16 00:38:11;;;;;;;22.17;14.20;;;52.10;2227.20;;;;;;5079517;28;20420;-71
2020/12/16 00:40:38;;;;;;;35.47;20.67;;;76.80;2227.20;;;;;;5079777;28;20016;-70
2020/12/16 00:43:04;;;;;;;15.15;9.23;;;77.00;2227.20;;;;;;5079729;28;20059;-70
2020/12/16 00:45:30;;;;;;;13.15;6.32;;;76.80;2227.20;;;;;;5079693;28;20050;-71
2020/12/16 00:47:56;;;;;;;13.43;7.60;;;76.80;2227.20;;;;;;5079026;28;20028;-70
2020/12/16 00:50:22;;;;;;;12.65;7.85;;;76.80;2227.20;;;;;;5079556;28;20370;-70
2020/12/16 00:52:47;;;;;;;12.60;6.60;;;76.90;2227.20;;;;;;5079230;28;20032;-71
2020/12/16 00:55:14;;;;;;;13.27;8.27;;;52.10;2227.20;;;;;;5079761;28;20067;-71
2020/12/16 00:57:40;;;;;;;21.73;12.85;;;76.80;2227.20;;;;;;5079417;28;20044;-71
2020/12/16 01:00:08;;;;;;;13.57;8.20;;;76.90;2227.20;;;;;;5078491;28;20071;-70
2020/12/16 01:02:39;;;;;;;28.30;14.90;;;76.80;2227.20;;;;;;5079624;28;20025;-71
2020/12/16 01:05:05;;;;;;;18.88;10.65;;;76.80;2227.20;;;;;;5079307;28;20060;-70
2020/12/16 01:07:30;;;;;;;20.40;11.50;;;76.80;2227.20;;;;;;5079539;28;20175;-70
2020/12/16 01:09:56;;;;;;;25.33;13.73;;;76.80;2227.20;;;;;;5079222;28;20025;-70
2020/12/16 01:12:22;;;;;;;23.30;12.48;;;77.00;2227.20;;;;;;5078827;28;20370;-71
2020/12/16 01:14:47;;;;;;;16.10;9.35;;;77.00;2227.20;;;;;;5078832;28;20020;-69
2020/12/16 01:17:13;;;;;;;19.70;11.65;;;77.00;2227.20;;;;;;5078467;28;20025;-71
2020/12/16 01:19:39;;;;;;;25.17;15.48;;;77.10;2227.20;;;;;;5078820;28;20024;-72
2020/12/16 01:22:05;;;;;;;24.58;17.33;;;77.10;2227.20;;;;;;5079209;28;20083;-71
2020/12/16 01:24:31;;;;;;;14.68;9.52;;;77.10;2227.20;;;;;;5079219;28;20028;-71
2020/12/16 01:26:56;;;;;;;10.05;6.40;;;77.00;2227.20;;;;;;5078599;28;20028;-69
2020/12/16 01:29:22;;;;;;;9.85;6.05;;;77.10;2227.20;;;;;;5078595;28;20025;-70
2020/12/16 01:31:49;;;;;;;40.60;21.40;;;77.10;2227.20;;;;;;5078764;28;20032;-70
2020/12/16 01:34:22;;;;;;;33.78;18.50;;;77.00;2227.20;;;;;;5078413;28;20036;-70
2020/12/16 01:36:49;;;;;;;24.00;13.07;;;76.90;2227.20;;;;;;5078974;28;20116;-71
2020/12/16 01:39:17;;;;;;;21.05;11.85;;;77.00;2227.20;;;;;;5078535;28;20119;-71
2020/12/16 01:41:45;;;;;;;16.10;9.18;;;77.10;2227.20;;;;;;5078043;28;20024;-71
2020/12/16 01:44:17;;;;;;;14.85;10.20;;;77.10;2227.20;;;;;;5078309;28;20389;-71
2020/12/16 01:46:48;;;;;;;12.48;7.53;;;77.20;2227.20;;;;;;5078770;28;20024;-72
2020/12/16 01:49:14;;;;;;;11.32;7.05;;;77.10;2227.20;;;;;;5078246;28;20111;-71
2020/12/16 01:51:41;;;;;;;12.55;7.03;;;76.90;2227.20;;;;;;5078424;28;20020;-69
2020/12/16 01:54:08;;;;;;;11.30;6.32;;;77.00;2227.20;;;;;;5077743;28;20028;-70
2020/12/16 01:56:39;;;;;;;10.00;6.05;;;76.80;2227.20;;;;;;5078456;28;20038;-70
2020/12/16 01:59:08;;;;;;;8.63;5.22;;;77.00;2227.20;;;;;;5078557;28;20520;-71
2020/12/16 02:01:37;;;;;;;11.43;6.03;;;77.10;2227.20;;;;;;5077674;28;20021;-70
2020/12/16 02:04:03;;;;;;;9.10;6.03;;;77.10;2227.20;;;;;;5078110;28;20040;-71
2020/12/16 02:06:33;;;;;;;9.98;5.93;;;77.20;2227.20;;;;;;5077721;28;20032;-70
2020/12/16 02:09:04;;;;;;;9.95;5.63;;;77.20;2227.20;;;;;;5078029;28;20021;-70
2020/12/16 02:11:31;;;;;;;10.05;6.50;;;77.10;2227.20;;;;;;5077496;28;20017;-71
2020/12/16 02:13:57;;;;;;;9.82;5.70;;;77.10;2227.20;;;;;;5077611;28;20040;-71
2020/12/16 02:16:23;;;;;;;8.98;5.28;;;77.00;2227.20;;;;;;5077882;28;20024;-71
2020/12/16 02:18:51;;;;;;;9.05;5.50;;;76.90;2227.20;;;;;;5077844;28;20466;-69
2020/12/16 02:21:18;;;;;;;9.23;5.40;;;77.00;2227.20;;;;;;5077541;28;20434;-72
2020/12/16 02:23:47;;;;;;;6.82;4.15;;;77.10;2227.20;;;;;;5077500;28;20261;-70
2020/12/16 02:26:14;;;;;;;;;;;77.00;2227.20;;;;;;5078118;28;20419;-70
2020/12/16 02:28:40;;;;;;;7.78;4.85;;;77.10;2227.20;;;;;;5077623;28;19957;-70
2020/12/16 02:31:06;;;;;;;10.82;6.82;;;76.80;2227.20;;;;;;5077600;28;20047;-70
2020/12/16 02:33:32;;;;;;;7.57;4.65;;;76.90;2227.20;;;;;;5077231;28;20032;-71
2020/12/16 02:35:58;;;;;;;8.73;4.97;;;76.90;2227.20;;;;;;5076993;28;20020;-70
2020/12/16 02:38:24;;;;;;;9.77;5.65;;;77.00;2227.20;;;;;;5077518;28;20024;-71
2020/12/16 02:40:50;;;;;;;8.20;5.10;;;77.00;2227.20;;;;;;5077189;28;20028;-69
2020/12/16 02:43:16;;;;;;;9.45;5.82;;;77.10;2227.20;;;;;;5077173;28;20028;-71
2020/12/16 02:45:42;;;;;;;10.40;6.03;;;77.10;2227.20;;;;;;5077114;28;20107;-72
2020/12/16 02:48:07;;;;;;;9.40;5.35;;;77.10;2227.20;;;;;;5077386;28;20025;-70
2020/12/16 02:50:33;;;;;;;10.63;6.50;;;77.00;2227.20;;;;;;5068815;28;20048;-71
2020/12/16 02:52:59;;;;;;;11.20;5.78;;;77.10;2227.20;;;;;;5060643;28;20086;-72
2020/12/16 02:55:25;;;;;;;12.13;6.95;;;77.10;2227.20;;;;;;5056511;28;20041;-70
2020/12/16 02:57:50;;;;;;;12.73;6.82;;;77.10;2227.20;;;;;;5057202;28;20378;-71
2020/12/16 03:00:16;;;;;;;11.88;6.55;;;77.10;2227.20;;;;;;5057185;28;20031;-71
2020/12/16 03:02:42;;;;;;;12.82;7.43;;;77.10;2227.20;;;;;;5056831;28;20025;-71
2020/12/16 03:05:08;;;;;;;11.35;6.50;;;77.10;2227.20;;;;;;5056705;28;20057;-69
2020/12/16 03:07:34;;;;;;;12.55;7.32;;;77.10;2227.20;;;;;;5057122;28;20428;-71
2020/12/16 03:10:00;;;;;;;14.65;6.82;;;77.10;2227.20;;;;;;5056711;28;20063;-70
2020/12/16 03:12:29;;;;;;;15.35;8.90;;;77.10;2227.20;;;;;;5056687;28;20052;-70
2020/12/16 03:14:54;;;;;;;19.17;9.20;;;77.10;2227.20;;;;;;5057351;28;20040;-71
2020/12/16 03:17:20;;;;;;;17.45;9.38;;;77.00;2227.20;;;;;;5057254;28;20028;-71
2020/12/16 03:19:46;;;;;;;22.85;11.02;;;77.00;2227.20;;;;;;5056489;28;20029;-72
2020/12/16 03:22:11;;;;;;;31.73;14.40;;;77.10;2227.20;;;;;;5056978;28;20063;-71
2020/12/16 03:24:37;;;;;;;20.25;10.88;;;77.10;2227.20;;;;;;5056967;28;20419;-71
2020/12/16 03:27:03;;;;;;;22.10;10.80;;;77.00;2227.20;;;;;;5056616;28;20132;-70
2020/12/16 03:29:29;;;;;;;33.63;16.65;;;77.00;2227.20;;;;;;5056834;28;20036;-70
2020/12/16 03:31:54;;;;;;;29.83;15.27;;;77.10;2227.20;;;;;;5056575;28;20368;-71
2020/12/16 03:34:20;;;;;;;28.05;13.82;;;77.10;2227.20;;;;;;5057070;28;20044;-70
2020/12/16 03:36:46;;;;;;;20.63;10.15;;;77.10;2227.20;;;;;;5056500;28;20059;-71
2020/12/16 03:39:12;;;;;;;14.65;8.27;;;76.90;2227.20;;;;;;5056557;28;20032;-69
2020/12/16 03:41:37;;;;;;;22.05;11.43;;;76.90;2227.20;;;;;;5057045;28;20422;-69
2020/12/16 03:44:03;;;;;;;12.00;7.32;;;76.90;2227.20;;;;;;5056757;28;20056;-71
2020/12/16 03:46:29;;;;;;;13.30;8.23;;;52.00;2227.20;;;;;;5056424;28;20056;-70
2020/12/16 03:48:55;;;;;;;14.75;7.93;;;51.90;2227.20;;;;;;5057001;28;20339;-70
2020/12/16 03:51:21;;;;;;;20.30;10.60;;;52.10;2227.20;;;;;;5056684;28;20028;-72
2020/12/16 03:53:46;;;;;;;13.27;7.72;;;76.80;2227.20;;;;;;5056331;28;20405;-69
2020/12/16 03:56:16;;;;;;;13.63;7.85;;;76.80;2227.20;;;;;;5056866;28;20086;-71
2020/12/16 03:58:44;;;;;;;20.90;8.77;;;77.00;2227.20;;;;;;5056260;28;20119;-70
2020/12/16 04:01:11;;;;;;;14.63;7.10;;;76.90;2227.20;;;;;;5056065;28;20021;-71
2020/12/16 04:03:37;;;;;;;32.42;14.20;;;77.00;2227.20;;;;;;5059931;28;20029;-72
2020/12/16 04:06:06;;;;;;;16.85;8.15;;;76.90;2227.20;;;;;;5060417;28;20361;-72
2020/12/16 04:08:36;;;;;;;38.78;14.38;;;77.10;2227.20;;;;;;5059758;28;20056;-71
2020/12/16 04:11:03;;;;;;;16.60;7.82;;;77.10;2227.20;;;;;;5060594;28;20031;-71
2020/12/16 04:13:29;;;;;;;10.90;5.78;;;77.10;2227.20;;;;;;5060186;28;20127;-71
2020/12/16 04:15:55;;;;;;;12.45;6.45;;;77.10;2227.20;;;;;;5059681;28;20108;-70
2020/12/16 04:18:20;;;;;;;17.23;8.23;;;77.10;2227.20;;;;;;5059928;28;20047;-70
2020/12/16 04:20:46;;;;;;;16.60;8.65;;;77.10;2227.20;;;;;;5060168;28;20057;-70
2020/12/16 04:23:12;;;;;;;12.48;6.13;;;77.20;2227.20;;;;;;5060114;28;20404;-69
2020/12/16 04:25:39;;;;;;;18.00;8.88;;;76.80;2227.20;;;;;;5059129;28;20428;-71
2020/12/16 04:28:05;;;;;;;41.78;17.33;;;51.90;2227.20;;;;;;5059706;28;20031;-70
2020/12/16 04:30:30;;;;;;;20.45;10.35;;;51.90;2227.20;;;;;;5059928;28;20021;-72
2020/12/16 04:32:56;;;;;;;17.95;7.70;;;51.80;2227.20;;;;;;5059790;28;20040;-71
2020/12/16 04:35:24;;;;;;;16.50;7.47;;;51.80;2227.20;;;;;;5059320;28;20021;-70
2020/12/16 04:37:51;;;;;;;10.57;5.65;;;51.60;2227.20;;;;;;5059763;28;20029;-70
2020/12/16 04:40:17;;;;;;;10.95;6.43;;;51.60;2227.20;;;;;;5059416;28;20064;-70
2020/12/16 04:42:43;;;;;;;11.07;6.75;;;51.60;2227.20;;;;;;5059457;28;20513;-71
2020/12/16 04:45:10;;;;;;;11.43;5.75;;;51.90;2227.20;;;;;;5059380;28;20033;-70
2020/12/16 04:47:36;;;;;;;10.07;5.32;;;51.90;2227.20;;;;;;5059891;28;20457;-72
2020/12/16 04:50:05;;;;;;;9.55;5.28;;;51.90;2227.20;;;;;;5059011;28;20383;-70
2020/12/16 04:52:32;;;;;;;30.35;11.23;;;52.10;2227.20;;;;;;5059107;28;20048;-70
2020/12/16 04:54:59;;;;;;;11.70;6.80;;;52.00;2227.20;;;;;;5059233;28;20328;-69
2020/12/16 04:57:25;;;;;;;26.48;13.65;;;52.00;2227.20;;;;;;5058904;28;20033;-71
2020/12/16 04:59:57;;;;;;;20.48;11.13;;;51.90;2227.20;;;;;;5059689;28;20126;-71
2020/12/16 05:02:22;;;;;;;29.55;14.35;;;51.80;2227.20;;;;;;5059294;28;20423;-71
2020/12/16 05:04:52;;;;;;;15.75;9.65;;;52.00;2227.20;;;;;;5058720;28;20045;-70
2020/12/16 05:07:29;;;;;;;16.10;9.80;;;51.90;2227.20;;;;;;5058989;28;20347;-70
2020/12/16 05:09:55;;;;;;;13.05;7.90;;;51.70;2227.20;;;;;;5058895;28;20035;-70
2020/12/16 05:12:21;;;;;;;10.35;6.03;;;51.90;2227.20;;;;;;5058817;28;20391;-72
2020/12/16 05:14:47;;;;;;;13.02;6.38;;;51.80;2227.20;;;;;;5058380;28;20021;-70
2020/12/16 05:17:13;;;;;;;13.10;7.00;;;51.80;2227.20;;;;;;5058780;28;20036;-70
2020/12/16 05:19:41;;;;;;;19.45;11.63;;;51.90;2227.20;;;;;;5059375;28;20017;-69
2020/12/16 05:22:31;;;;;;;53.25;34.10;;;51.70;2227.20;;;;;;5058972;28;20339;-71
2020/12/16 05:24:59;;;;;;;26.13;19.13;;;51.70;2227.20;;;;;;5058910;28;20036;-71
2020/12/16 05:27:32;;;;;;;15.23;9.80;;;51.70;2227.20;;;;;;5058864;28;20047;-71
2020/12/16 05:30:01;;;;;;;11.27;6.25;;;51.50;2227.20;;;;;;5059157;28;20029;-70
2020/12/16 05:32:30;;;;;;;11.20;6.40;;;51.50;2227.20;;;;;;5058764;28;20055;-71
2020/12/16 05:34:58;;;;;;;37.67;24.38;;;51.40;2227.20;;;;;;5059009;28;20324;-70
2020/12/16 05:37:35;;;;;;;186.75;113.47;;;51.50;2227.20;;;;;;5058033;28;20025;-70
2020/12/16 05:40:07;;;;;;;62.55;39.47;;;51.50;2227.20;;;;;;5058421;28;20040;-70
2020/12/16 05:42:33;;;;;;;13.48;8.02;;;51.60;2227.20;;;;;;5058870;28;20025;-69
2020/12/16 05:45:14;;;;;;;9.90;5.53;;;51.80;2227.20;;;;;;5058497;28;20025;-71
2020/12/16 05:47:42;;;;;;;13.18;8.93;;;52.00;2227.20;;;;;;5058257;28;20031;-70
2020/12/16 05:50:18;;;;;;;16.25;7.05;;;52.00;2227.20;;;;;;5058352;28;20117;-70
2020/12/16 05:52:45;;;;;;;14.80;7.80;;;52.10;2227.20;;;;;;5058323;28;20087;-72
2020/12/16 05:55:11;;;;;;;11.00;6.18;;;76.80;2227.20;;;;;;5058364;28;20025;-72
2020/12/16 05:57:37;;;;;;;12.07;6.47;;;76.80;2227.20;;;;;;5057985;28;20028;-70
2020/12/16 06:00:05;;;;;;;12.00;5.90;;;76.90;2227.20;;;;;;5058084;28;20025;-71
2020/12/16 06:02:37;;;;;;;35.05;15.50;;;76.90;2227.20;;;;;;5058522;28;20032;-70
2020/12/16 06:05:08;;;;;;;16.33;10.88;;;76.80;2227.20;;;;;;5058384;28;20057;-71
2020/12/16 06:07:38;;;;;;;47.35;21.52;;;76.90;2227.20;;;;;;5057984;28;20029;-71
2020/12/16 06:10:04;;;;;;;63.17;32.15;;;76.90;2227.20;;;;;;5058097;28;20035;-70
2020/12/16 06:12:31;;;;;;;42.15;25.08;;;76.90;2227.20;;;;;;5057942;28;20032;-70
2020/12/16 06:15:06;;;;;;;44.60;25.73;;;52.00;2227.20;;;;;;5057365;28;20025;-69
2020/12/16 06:17:38;;;;;;;51.63;30.50;;;52.10;2227.20;;;;;;5058228;28;20417;-71
2020/12/16 06:20:06;;;;;;;26.42;16.20;;;52.10;2227.20;;;;;;5057602;28;20021;-70
2020/12/16 06:22:36;;;;;;;15.35;9.63;;;52.00;2227.20;;;;;;5064695;28;20056;-71
2020/12/16 06:25:04;;;;;;;14.50;8.90;;;52.10;2227.20;;;;;;5059190;28;20025;-70
2020/12/16 06:27:37;;;;;;;13.10;7.13;;;76.90;2227.20;;;;;;5061410;28;20021;-69
2020/12/16 06:30:05;;;;;;;10.40;6.13;;;77.10;2227.20;;;;;;5057600;28;20036;-71
2020/12/16 06:32:44;;;;;;;10.37;7.53;;;76.90;2227.20;;;;;;5063565;28;20025;-70
2020/12/16 06:35:17;;;;;;;11.52;6.38;;;52.10;2227.20;;;;;;5066322;28;20025;-69
2020/12/16 06:37:44;;;;;;;11.45;7.55;;;76.80;2227.20;;;;;;5069421;28;20146;-71
2020/12/16 06:40:10;;;;;;;13.80;9.52;;;77.00;2227.20;;;;;;5062615;28;20025;-72
2020/12/16 06:42:36;;;;;;;12.85;7.53;;;77.00;2227.20;;;;;;5056940;28;20063;-71
2020/12/16 06:45:16;;;;;;;14.82;10.25;;;77.10;2227.20;;;;;;5059406;28;20094;-70
2020/12/16 06:47:42;;;;;;;18.70;11.88;;;77.20;2227.20;;;;;;5077049;28;20028;-71
2020/12/16 06:50:19;;;;;;;18.15;11.93;;;77.30;2227.20;;;;;;5077152;28;20056;-71
2020/12/16 06:52:45;;;;;;;14.95;11.82;;;77.30;2227.20;;;;;;5077047;28;20158;-71
2020/12/16 06:55:11;;;;;;;9.57;5.55;;;77.30;2227.20;;;;;;5076597;28;20415;-70
2020/12/16 06:57:50;;;;;;;12.05;7.60;;;77.40;2227.20;;;;;;5076909;28;20027;-71
2020/12/16 07:00:18;;;;;;;14.25;7.88;;;77.60;2227.20;;;;;;5076964;28;20021;-70
2020/12/16 07:02:44;;;;;;;10.80;6.70;;;102.40;2227.20;;;;;;5077130;28;20032;-71
2020/12/16 07:05:49;;;;;;;14.48;7.85;;;102.40;2227.20;;;;;;5076653;28;20293;-70
2020/12/16 07:08:28;;;;;;;11.10;6.97;;;102.40;2227.20;;;;;;4995148;28;20129;-72
2020/12/16 07:10:54;;;;;;;17.80;11.07;;;102.50;2227.20;;;;;;4994992;28;20034;-72
2020/12/16 07:13:24;;;;;;;132.32;75.72;;;102.50;2227.20;;;;;;4995388;28;20120;-71
2020/12/16 07:16:13;;;;;;;59.28;36.80;;;102.60;2227.20;;;;;;4994283;28;20116;-71
2020/12/16 07:18:51;;;;;;;34.65;20.05;;;102.80;2227.20;;;;;;4995065;28;20445;-70
2020/12/16 07:21:19;;;;;;;41.35;25.38;;;102.90;2227.20;;;;;;4995175;28;20030;-71
2020/12/16 07:24:03;;;;;;;23.70;13.95;;;103.00;2227.20;;;;;;4995074;28;20169;-71
2020/12/16 07:26:43;;;;;;;23.42;13.77;;;103.20;2227.20;;;;;;4995200;28;20038;-71
2020/12/16 07:29:25;;;;;;;21.45;14.20;;;103.10;2227.20;;;;;;4995198;28;20337;-72
2020/12/16 07:32:07;;;;;;;25.63;17.05;;;103.20;2227.20;;;;;;4994714;28;20042;-69
2020/12/16 07:34:46;;;;;;;14.02;8.57;;;103.20;2227.20;;;;;;5003821;28;20068;-71
2020/12/16 07:37:12;;;;;;;;;;;103.10;2227.20;;;;;;5000868;28;20387;-71
2020/12/16 07:39:57;;;;;;;17.60;13.98;;;103.30;2227.20;;;;;;5046999;28;19905;-70
2020/12/16 07:42:30;;;;;;;28.65;22.35;;;128.00;2252.80;;;;;;5081029;28;20024;-71
2020/12/16 07:44:57;;;;;;;17.90;11.55;;;128.10;2252.80;;;;;;5080262;28;20418;-71
2020/12/16 07:47:24;;;;;;;16.67;6.78;;;128.00;2252.80;;;;;;5080685;28;20092;-71
2020/12/16 07:49:49;;;;;;;14.18;6.95;;;128.10;2252.80;;;;;;5080191;28;20028;-71
2020/12/16 07:52:16;;;;;;;9.80;6.32;;;128.30;2252.80;;;;;;5079877;28;20024;-71
2020/12/16 07:54:42;;;;;;;11.00;7.45;;;128.50;2252.80;;;;;;5080521;28;20043;-71
2020/12/16 07:57:08;;;;;;;13.00;7.18;;;128.60;2252.80;;;;;;5079867;28;20024;-71
2020/12/16 07:59:35;;;;;;;15.05;9.48;;;128.80;2252.80;;;;;;5079877;28;20028;-69
2020/12/16 08:02:27;;;;;;;9.88;4.35;;;128.70;2252.80;;;;;;5079972;28;20020;-72
2020/12/16 08:04:59;;;;;;;7.97;4.75;;;128.80;2252.80;;;;;;5076365;28;20142;-71
2020/12/16 08:07:25;;;;;;;8.80;4.55;;;128.70;2252.80;;;;;;5080599;28;20042;-72
2020/12/16 08:09:58;;;;;;;8.85;4.72;;;128.70;2252.80;;;;;;5080109;28;20370;-71
2020/12/16 08:12:26;;;;;;;5.32;3.30;;;128.80;2252.80;;;;;;5079987;28;20024;-70
2020/12/16 08:15:12;;;;;;;5.68;3.53;;;128.90;2252.80;;;;;;5078753;28;20062;-70
2020/12/16 08:17:41;;;;;;;8.50;3.58;;;128.90;2252.80;;;;;;5079560;28;20024;-71
2020/12/16 08:20:20;;;;;;;6.88;3.50;;;128.90;2252.80;;;;;;5079896;28;20052;-71
2020/12/16 08:22:49;;;;;;;6.10;3.30;;;153.60;2252.80;;;;;;5079830;28;20352;-71
2020/12/16 08:25:17;;;;;;;6.15;4.00;;;153.70;2252.80;;;;;;5079661;28;20029;-70
2020/12/16 08:27:52;;;;;;;6.83;3.87;;;153.70;2252.80;;;;;;5079592;28;20024;-71
2020/12/16 08:30:23;;;;;;;8.45;4.93;;;153.70;2252.80;;;;;;5080120;28;20024;-70
2020/12/16 08:33:07;;;;;;;9.10;5.43;;;153.80;2252.80;;;;;;5079789;28;20127;-69
2020/12/16 08:35:48;;;;;;;7.50;4.70;;;153.90;2252.80;;;;;;5080060;28;20031;-71
2020/12/16 08:38:24;;;;;;;17.75;11.38;;;154.00;2252.80;;;;;;5079345;28;20438;-70
2020/12/16 08:40:51;;;;;;;16.20;10.57;;;154.20;2252.80;;;;;;5078839;28;20027;-69
2020/12/16 08:43:17;;;;;;;16.02;9.63;;;154.30;2252.80;;;;;;5079321;28;20446;-70
2020/12/16 08:45:44;;;;;;;12.63;7.55;;;154.30;2252.80;;;;;;5079404;28;20059;-69
2020/12/16 08:48:10;;;;;;;9.40;5.65;;;154.40;2252.80;;;;;;5078554;28;20028;-71
2020/12/16 08:50:36;;;;;;;12.02;7.40;;;154.40;2252.80;;;;;;5078909;28;20060;-71
2020/12/16 08:53:04;;;;;;;8.05;5.28;;;154.50;2252.80;;;;;;5079622;28;20063;-71
2020/12/16 08:55:37;;;;;;;8.73;6.23;;;154.50;2252.80;;;;;;5079466;28;20056;-69
2020/12/16 08:58:04;;;;;;;8.23;4.63;;;179.30;2252.80;;;;;;5079192;28;20032;-70
2020/12/16 09:00:34;;;;;;;9.27;5.00;;;179.30;2252.80;;;;;;5079541;28;20032;-71
2020/12/16 09:03:08;;;;;;;6.18;3.72;;;179.40;2252.80;;;;;;5079293;28;20025;-71
2020/12/16 09:05:37;;;;;;;7.30;3.83;;;179.40;2252.80;;;;;;5079664;28;20045;-69
2020/12/16 09:08:15;;;;;;;6.70;4.47;;;179.30;2252.80;;;;;;5078317;28;20399;-70
2020/12/16 09:10:43;;;;;;;5.57;3.40;;;179.40;2252.80;;;;;;5078678;28;20454;-70
2020/12/16 09:13:14;;;;;;;8.13;3.28;;;179.20;2252.80;;;;;;5078348;28;20086;-69
2020/12/16 09:15:43;;;;;;;8.40;4.43;;;179.30;2252.80;;;;;;5079019;28;20023;-69
2020/12/16 09:18:09;;;;;;;5.60;3.40;;;179.50;2252.80;;;;;;5078447;28;20479;-72
2020/12/16 09:20:35;;;;;;;14.40;4.47;;;179.50;2252.80;;;;;;5077792;28;20097;-70
2020/12/16 09:23:01;;;;;;;13.40;5.65;;;179.40;2252.80;;;;;;5077977;28;20427;-70
2020/12/16 09:25:27;;;;;;;21.73;6.47;;;179.40;2252.80;;;;;;5078801;28;20028;-71
2020/12/16 09:27:58;;;;;;;9.55;4.97;;;179.50;2227.20;;;;;;5078549;28;20339;-70
2020/12/16 09:30:34;;;;;;;7.65;4.18;;;179.50;2252.80;;;;;;5078755;28;20048;-71
2020/12/16 09:33:14;;;;;;;8.77;3.90;;;179.70;2252.80;;;;;;5078970;28;20085;-72
2020/12/16 09:35:41;;;;;;;6.10;3.80;;;179.80;2227.20;;;;;;5078027;28;20398;-72
2020/12/16 09:38:14;;;;;;;6.90;3.88;;;179.90;2227.20;;;;;;5078008;28;20111;-69
2020/12/16 09:40:41;;;;;;;7.03;3.70;;;179.90;2227.20;;;;;;5078184;28;20316;-71
2020/12/16 09:43:09;;;;;;;6.25;3.60;;;180.10;2201.60;;;;;;5078186;28;20136;-69
2020/12/16 09:45:39;;;;;;;6.15;3.95;;;204.80;2201.60;;;;;;5077813;28;20069;-69
2020/12/16 09:48:06;;;;;;;14.13;8.43;;;204.80;2201.60;;;;;;5077890;28;20074;-69
2020/12/16 09:50:34;;;;;;;7.03;4.53;;;204.90;2201.60;;;;;;5078274;28;20020;-70
2020/12/16 09:53:06;;;;;;;7.95;3.55;;;205.00;2150.40;;;;;;5078541;28;20331;-69
2020/12/16 09:55:43;;;;;;;5.57;3.28;;;205.00;2150.40;;;;;;5077342;28;20332;-71
2020/12/16 09:58:13;;;;;;;7.20;4.43;;;205.10;2124.80;;;;;;5076610;28;20028;-69
2020/12/16 10:00:40;;;;;;;8.82;4.85;;;205.20;2150.40;;;;;;5076871;28;20351;-69
2020/12/16 10:03:08;;;;;;;10.23;5.30;;;205.30;2150.40;;;;;;5077862;28;20029;-70
2020/12/16 10:05:35;;;;;;;7.95;4.90;;;205.40;2099.20;;;;;;5077421;28;20351;-70
2020/12/16 10:08:02;;;;;;;10.85;7.55;;;205.50;2099.20;;;;;;5077668;28;20058;-71
2020/12/16 10:10:30;;;;;;;8.50;5.45;;;205.60;2099.20;;;;;;5077655;28;20031;-71
2020/12/16 10:12:56;;;;;;;7.60;4.47;;;205.70;2099.20;;;;;;5077084;28;20439;-73
2020/12/16 10:15:23;;;;;;;12.05;8.30;;;205.70;2073.60;;;;;;5077801;28;20024;-70
2020/12/16 10:17:49;;;;;;;11.35;6.68;;;205.70;2073.60;;;;;;5077373;28;20103;-71
2020/12/16 10:20:16;;;;;;;8.57;4.65;;;205.60;2073.60;;;;;;5077994;28;20031;-71
2020/12/16 10:22:42;;;;;;;6.75;4.32;;;205.70;2073.60;;;;;;5077693;28;20440;-72
2020/12/16 10:25:08;;;;;;;8.18;5.28;;;205.70;2073.60;;;;;;5077413;28;20083;-70
2020/12/16 10:27:34;;;;;;;6.80;4.43;;;230.50;2048.00;;;;;;5076969;28;20032;-69
2020/12/16 10:30:01;;;;;;;8.27;4.95;;;230.60;2048.00;;;;;;5077668;28;20340;-71
2020/12/16 10:32:28;;;;;;;7.63;4.88;;;230.60;2022.40;;;;;;5076695;28;20385;-71
2020/12/16 10:34:55;;;;;;;8.80;5.90;;;230.50;2048.00;;;;;;5077118;28;20032;-70
2020/12/16 10:37:21;;;;;;;11.98;7.30;;;230.70;2022.40;;;;;;5077726;28;20082;-71
2020/12/16 10:39:48;;;;;;;8.90;5.45;;;230.90;2022.40;;;;;;5076917;28;20016;-72
2020/12/16 10:42:14;;;;;;;12.13;6.55;;;231.00;1971.20;;;;;;5077339;28;20064;-72
2020/12/16 10:44:40;;;;;;;7.25;5.07;;;231.00;1996.80;;;;;;5077071;28;20020;-71
2020/12/16 10:47:07;;;;;;;7.82;5.20;;;231.20;1971.20;;;;;;5077059;28;20074;-70
2020/12/16 10:49:34;;;;;;;9.18;5.30;;;256.00;1945.60;;;;;;5076638;28;20385;-72
2020/12/16 10:52:14;;;;;;;7.60;5.07;;;256.20;1945.60;;;;;;5076972;28;20462;-71
2020/12/16 10:54:40;;;;;;;7.68;4.97;;;256.40;1945.60;;;;;;5076162;28;20370;-71
2020/12/16 10:57:06;;;;;;;9.00;4.78;;;256.50;1920.00;;;;;;5076940;28;20024;-71
2020/12/16 10:59:32;;;;;;;10.18;5.47;;;256.80;1894.40;;;;;;5076911;28;20428;-70
2020/12/16 11:01:59;;;;;;;7.07;4.90;;;281.60;1894.40;;;;;;5076660;28;20028;-70
2020/12/16 11:04:29;;;;;;;8.35;5.40;;;281.80;1894.40;;;;;;5076887;28;20063;-71
2020/12/16 11:06:55;;;;;;;21.23;8.30;;;282.00;1868.80;;;;;;5076640;28;20033;-69
2020/12/16 11:09:21;;;;;;;12.73;6.63;;;282.20;1817.60;;;;;;5077286;28;20020;-72
2020/12/16 11:11:52;;;;;;;7.20;4.63;;;282.20;1817.60;;;;;;5076129;28;20032;-71
2020/12/16 11:14:19;;;;;;;7.30;5.28;;;282.10;1817.60;;;;;;5076229;28;20352;-72
2020/12/16 11:16:45;;;;;;;8.90;6.03;;;282.50;1792.00;;;;;;5076642;28;20059;-70
2020/12/16 11:19:14;;;;;;;7.80;5.38;;;307.50;1766.40;;;;;;5076616;28;20036;-71
2020/12/16 11:21:49;;;;;;;8.40;4.43;;;307.60;1740.80;;;;;;5076902;28;20021;-71
2020/12/16 11:24:17;;;;;;;8.50;5.55;;;307.80;1740.80;;;;;;5076275;28;20067;-72
2020/12/16 11:26:47;;;;;;;12.38;7.35;;;308.00;1715.20;;;;;;5076547;28;20420;-67
2020/12/16 11:29:15;;;;;;;10.93;6.22;;;308.10;1689.60;;;;;;5075855;28;20028;-72
2020/12/16 11:31:52;;;;;;;14.67;5.23;;;332.90;1689.60;;;;;;5076823;28;20029;-71
2020/12/16 11:34:22;;;;;;;15.60;8.85;;;333.40;1664.00;;;;;;5076702;28;20419;-69
2020/12/16 11:36:50;;;;;;;28.27;13.65;;;333.70;1638.40;;;;;;5075897;28;20316;-71
2020/12/16 11:39:17;;;;;;;20.75;9.75;;;358.50;1612.80;;;;;;5076417;28;20025;-70
2020/12/16 11:41:45;;;;;;;14.20;8.32;;;358.40;1612.80;;;;;;5076632;28;20407;-72
2020/12/16 11:44:12;;;;;;;23.92;10.27;;;358.50;1612.80;;;;;;5075506;28;20363;-69
2020/12/16 11:46:38;;;;;;;16.67;10.15;;;358.90;1561.60;;;;;;5065541;28;20482;-69
2020/12/16 11:49:04;;;;;;;9.38;5.55;;;384.00;1536.00;;;;;;5056308;28;20025;-67
2020/12/16 11:51:30;;;;;;;12.10;8.90;;;384.20;1510.40;;;;;;5056257;28;20068;-67
2020/12/16 11:53:56;;;;;;;19.63;7.88;;;384.40;1484.80;;;;;;5056577;28;20086;-66
2020/12/16 11:56:24;;;;;;;50.15;29.92;;;384.80;1459.20;;;;;;5057344;28;20050;-69
2020/12/16 11:58:51;;;;;;;170.80;95.40;;;409.70;1433.60;;;;;;5076815;28;20115;-69
2020/12/16 12:01:17;;;;;;;75.18;46.33;;;384.10;1484.80;;;;;;5075816;28;20320;-70
2020/12/16 12:03:44;;;;;;;42.88;29.73;;;358.70;1536.00;;;;;;5075974;28;20450;-71
2020/12/16 12:06:10;;;;;;;16.63;13.13;;;333.60;1561.60;;;;;;5076096;28;20025;-71
2020/12/16 12:08:37;;;;;;;23.38;16.67;;;333.30;1612.80;;;;;;5075938;28;20071;-70
2020/12/16 12:11:03;;;;;;;60.97;45.00;;;333.00;1638.40;;;;;;5076419;28;20051;-70
2020/12/16 12:13:29;;;;;;;8.73;5.93;;;308.10;1638.40;;;;;;5076350;28;20024;-71
2020/12/16 12:15:55;;;;;;;9.18;6.28;;;307.90;1664.00;;;;;;5076418;28;20039;-70
2020/12/16 12:18:21;;;;;;;9.32;5.88;;;307.60;1689.60;;;;;;5075991;28;20423;-71
2020/12/16 12:20:47;;;;;;;9.30;5.43;;;307.40;1715.20;;;;;;5075748;28;20050;-71